Tiempo atmosférico en la estación meteorológica de Santillana del Mar, Altamira, Cantabria (150 m.)



Fecha
DESCASC
Temp. máxima en grados centígrados (hora)
DESCASC
Temp. mínima en grados centígrados (hora)
DESCASC
Temp. media en grados centígrados
DESCASC
Racha de viento máxima en m/sg (hora)
DESCASC
Velocidad máxima media en intervalos de 10 minutos(hora)
DESCASC
Precipitaciones diarias en mm
DESCASC
Precipitaciones de 00:00 a 06:00 en mm
DESCASC
Precipitaciones de 06:00 a 12:00 en mm
DESCASC
Precipitaciones de 12:00 a 18:00 en mm
DESCASC
Precipitaciones de 18:00 a 24:00 en mm
DESCASC
26-11-2020 17 (14:40) 11.8 (01:00) 14.4 13.89 (09:50) 8.61 (09:40) 0 0 0 0 0
25-11-2020 17 (12:30) 9.3 (03:00) 13.2 11.39 (23:40) 7.78 (23:40) 0 0 0 0 0
24-11-2020 16.1 (15:00) 7.4 (02:30) 11.8 5 (06:10) 2.78 (06:00) 0 0 0 0 0
23-11-2020 15.8 (14:10) 5 (07:10) 10.4 4.17 (05:30) 3.33 (09:30) 0 0 0 0 0
22-11-2020 14.6 (13:10) 5.1 (00:00) 9.9 4.17 (09:10) 3.06 (09:00) 0 0 0 0 0
21-11-2020 13.9 (13:50) 4.8 (00:00) 9.3 5.56 (12:00) 3.06 (12:00) 0 0 0 0 0
20-11-2020 15.1 (14:10) 7.6 (00:00) 11.4 5.28 (15:20) 2.78 (15:20) 0 0 0 0 0
19-11-2020 16.1 (00:20) 10.3 (00:00) 13.2 9.17 (01:10) 6.11 (03:50) 7.4 2.6 4.6 0.2 0
18-11-2020 22.3 (12:50) 13.9 (00:00) 18.1 5.83 (14:10) 3.33 (23:00) 0 0 0 0 0
17-11-2020 19.4 (16:20) 7.4 (00:00) 13.4 5.28 (23:50) 3.33 (23:00) 0 0 0 0 0
16-11-2020 15.9 (13:40) 8.9 (00:00) 12.4 7.22 (01:20) 3.89 (01:20) 1.4 1.4 0 0 0
15-11-2020 20.3 (10:20) 12.1 (00:00) 16.2 11.67 (17:10) 6.11 (14:10) 12.6 0 0 9 3.6
14-11-2020 22.9 (13:20) 10.3 (00:00) 16.6 5 (02:20) 3.33 (02:20) 0 0 0 0 0
13-11-2020 20.7 (14:30) 12.1 (00:00) 16.4 7.78 (11:50) 4.44 (11:50) 0 0 0 0 0
12-11-2020 18.5 (13:30) 12.6 (00:00) 15.6 4.72 (10:30) 2.78 (20:40) 0 0 0 0 0
11-11-2020 17.7 (13:50) 8.4 (00:00) 13.1 5 (07:10) 3.61 (05:50) 0 0 0 0 0
10-11-2020 17.1 (13:20) 10.8 (00:00) 14 6.11 (15:40) 2.78 (15:20) 0.2 0.2 0 0 0
09-11-2020 20.9 (12:10) 12.1 (00:00) 16.5 8.06 (01:10) 5 (00:50) 1 0 0 0 1
08-11-2020 18.9 (16:30) 13.3 (00:00) 16.1 12.78 (16:10) 7.78 (07:10) 0 0 0 0 0
07-11-2020 19.4 (04:10) 13.7 (00:00) 16.5 15 (06:00) 10 (06:00) 0 0 0 0 0
06-11-2020 22.2 (14:40) 14.9 (00:00) 18.6 18.33 (22:40) 12.5 (22:50) 0 0 0 0 0
05-11-2020 15.3 (14:30) 7.5 (00:00) 11.4 7.22 (14:40) 3.61 (23:59) 0 0 0 0 0
04-11-2020 12.7 (13:00) 7.6 (00:00) 10.1 7.5 (17:50) 3.33 (15:20) 5.2 4.6 0.6 0 0
03-11-2020 12.2 (09:40) 8.5 (00:00) 10.3 9.72 (10:50) 4.72 (12:00) 10 0.2 5.8 3 1
02-11-2020 24.5 (12:20) 10.9 (00:00) 17.7 14.44 (12:40) 6.94 (12:40) 11.4 0 0 4 7.4
01-11-2020 24.5 (15:20) 16.4 (00:00) 20.4 6.67 (16:20) 3.61 (15:10) 0 0 0 0 0
31-10-2020 24.4 (13:50) 9.9 (00:00) 17.1 5.83 (04:00) 3.89 (04:00) 0 0 0 0 0
30-10-2020 18.1 (13:50) 9.8 (00:00) 14 4.44 (00:30) 2.78 (14:20) 0 0 0 0 0
29-10-2020 17.9 (13:30) 10 (00:00) 13.9 5.56 (15:10) 3.61 (15:20) 0 0 0 0 0
28-10-2020 17.5 (15:50) 11.7 (00:00) 14.6 8.61 (00:30) 3.89 (00:30) 1.6 1.6 0 0 0

Gráficas

Temp. máximas Temp. mínimas Temp. medias Precipitaciones Rachas de viento máximas Velocidades máximas media en intervalos de 10 minutos

Datos horarios

Fecha y hora oficial Temperatura (ºC) Velocidad del viento (km/h) Dirección del viento Racha (km/h) Dirección de racha Precipitación (mm) Presión (hPa) Tendencia (hPa) Humedad (%)
2020-11-26 23:00:00 14.3 19 Sudeste 34 Sudeste 0 -- -- 61
2020-11-26 22:00:00 13.9 19 Sur 33 Sur 0 -- -- 61
2020-11-26 21:00:00 14.5 26 Sur 36 Sur 0 -- -- 59
2020-11-26 20:00:00 14.2 13 Sur 22 Sur 0 -- -- 61
2020-11-26 19:00:00 15.2 20 Sur 36 Sur 0 -- -- 55
2020-11-26 18:00:00 15 16 Sur 30 Sur 0 -- -- 56
2020-11-26 17:00:00 15.7 19 Sur 35 Sudeste 0 -- -- 54
2020-11-26 16:00:00 16.2 15 Sudeste 26 Sudeste 0 -- -- 54
2020-11-26 15:00:00 16.8 19 Sudeste 36 Sudeste 0 -- -- 51
2020-11-26 14:00:00 16.6 22 Sudeste 40 Sudeste 0 -- -- 50
2020-11-26 13:00:00 16.1 26 Sur 41 Sudeste 0 -- -- 51
2020-11-26 12:00:00 15.5 20 Sudeste 45 Sur 0 -- -- 53
2020-11-26 11:00:00 14.9 30 Sur 44 Sudeste 0 -- -- 53
2020-11-26 10:00:00 13.5 21 Sur 50 Sur 0 -- -- 58
2020-11-26 09:00:00 13.2 26 Sur 40 Sudeste 0 -- -- 59
2020-11-26 08:00:00 13.5 26 Sudeste 40 Sudeste 0 -- -- 57
2020-11-26 07:00:00 13.4 17 Sudeste 36 Sudeste 0 -- -- 57
2020-11-26 06:00:00 13.2 19 Sudeste 36 Sur 0 -- -- 57
2020-11-26 05:00:00 13.1 17 Sudeste 28 Sudeste 0 -- -- 57
2020-11-26 04:00:00 12.7 6 Sudeste 37 Sudeste 0 -- -- 57
2020-11-26 03:00:00 12.9 24 Sudeste 39 Sur 0 -- -- 55
2020-11-26 02:00:00 12.7 17 Sudeste 29 Sur 0 -- -- 56
2020-11-26 01:00:00 11.8 18 Sur 46 Sur 0 -- -- 61
2020-11-26 00:00:00 12.7 22 Sudeste 41 Sur 0 -- -- 55
2020-11-25 23:00:00 11 13 Sur 20 Sudeste 0 -- -- 65
2020-11-25 22:00:00 11.1 17 Sur 28 Sudeste 0 -- -- 63
2020-11-25 21:00:00 11.3 10 Sur 28 Sur 0 -- -- 60
2020-11-25 20:00:00 11.3 14 Sur 18 Sur 0 -- -- 67
2020-11-25 19:00:00 11.5 6 Sudeste 16 Este 0 -- -- 91
2020-11-25 18:00:00 12.7 4 Este 12 Nordeste 0 -- -- 91
2020-11-25 17:00:00 13.7 6 Norte 15 Nordeste 0 -- -- 88
2020-11-25 16:00:00 14.8 8 Norte 16 Nordeste 0 -- -- 81
2020-11-25 15:00:00 15.4 10 Norte 16 Norte 0 -- -- 74
2020-11-25 14:00:00 15.3 9 Norte 15 Noroeste 0 -- -- 59
2020-11-25 13:00:00 16.6 7 Norte 10 Norte 0 -- -- 60
2020-11-25 12:00:00 16.5 4 Sur 9 Sur 0 -- -- 51
2020-11-25 11:00:00 14.8 4 Sur 9 Nordeste 0 -- -- 55
2020-11-25 10:00:00 13.4 0 Calma 7 Sudoeste 0 -- -- 75
2020-11-25 09:00:00 12.1 5 Sudoeste 11 Sudoeste 0 -- -- 82
2020-11-25 08:00:00 10.5 9 Sudoeste 13 Sudoeste 0 -- -- 75
2020-11-25 07:00:00 12 6 Sur 9 Sudoeste 0 -- -- 56
2020-11-25 06:00:00 10.6 7 Sur 10 Sur 0 -- -- 63
2020-11-25 05:00:00 10.3 9 Sur 15 Sudeste 0 -- -- 69
2020-11-25 04:00:00 10 9 Sur 13 Sur 0 -- -- 67
2020-11-25 03:00:00 9.3 9 Sur 17 Sudoeste 0 -- -- 69
2020-11-25 02:00:00 10.3 12 Sur 25 Sur 0 -- -- 64
2020-11-25 01:00:00 11.1 14 Sudoeste 22 Sudoeste 0 -- -- 62
2020-11-25 00:00:00 10.9 8 Sudoeste 14 Sudoeste 0 -- -- 70
2020-11-24 23:00:00 10.2 10 Sudoeste 13 Sudoeste 0 -- -- 85
2020-11-24 22:00:00 9.2 7 Sudoeste 10 Sudoeste 0 -- -- 90
2020-11-24 21:00:00 10.7 6 Sudoeste 12 Sudoeste 0 -- -- 85
2020-11-24 20:00:00 11.4 5 Sudoeste 9 Sudoeste 0 -- -- 85
2020-11-24 19:00:00 12.3 2 Sur 6 Este 0 -- -- 79
2020-11-24 18:00:00 12.8 0 Calma 6 Este 0 -- -- 75
2020-11-24 17:00:00 14.2 4 Este 8 Este 0 -- -- 65
2020-11-24 16:00:00 15.6 5 Este 6 Este 0 -- -- 62
2020-11-24 15:00:00 16.1 4 Norte 9 Noroeste 0 -- -- 62
2020-11-24 14:00:00 16 4 Norte 10 Noroeste 0 -- -- 62
2020-11-24 13:00:00 15.6 3 Noroeste 10 Noroeste 0 -- -- 65
2020-11-24 12:00:00 14.2 5 Sudoeste 12 Sur 0 -- -- 60
2020-11-24 11:00:00 14 5 Sur 11 Sudoeste 0 -- -- 55
2020-11-24 10:00:00 12.2 7 Sudoeste 17 Sudoeste 0 -- -- 43
2020-11-24 09:00:00 10.3 7 Sudoeste 15 Oeste 0 -- -- 46
2020-11-24 08:00:00 11 6 Sudoeste 17 Sudoeste 0 -- -- 39
2020-11-24 07:00:00 10.1 7 Sudoeste 18 Oeste 0 -- -- 52
2020-11-24 06:00:00 8.5 10 Sudoeste 17 Sudoeste 0 -- -- 73
2020-11-24 05:00:00 8.9 3 Sudoeste 10 Sudoeste 0 -- -- 70
2020-11-24 04:00:00 8.5 3 Oeste 10 Sudoeste 0 -- -- 75
2020-11-24 03:00:00 8.2 0 Calma 6 Sudoeste 0 -- -- 68
2020-11-24 02:00:00 7.6 0 Calma 10 Sur 0 -- -- 79
2020-11-24 01:00:00 8 6 Sur 10 Sudeste 0 -- -- 78
2020-11-24 00:00:00 8.6 4 Este 10 Sudeste 0 -- -- 79
2020-11-23 23:00:00 8.2 4 Sur 9 Sur 0 -- -- 87
2020-11-23 22:00:00 8.6 5 Sur 8 Sur 0 -- -- 86
2020-11-23 21:00:00 9.2 4 Sudeste 8 Sur 0 -- -- 85
2020-11-23 20:00:00 9.7 5 Sudeste 13 Este 0 -- -- 77
2020-11-23 19:00:00 10.7 7 Este 12 Este 0 -- -- 70
2020-11-23 18:00:00 11.6 3 Este 11 Este 0 -- -- 61
2020-11-23 17:00:00 13.2 4 Nordeste 14 Nordeste 0 -- -- 58
2020-11-23 16:00:00 14.3 5 Nordeste 9 Nordeste 0 -- -- 59
2020-11-23 15:00:00 15.3 4 Nordeste 11 Sudeste 0 -- -- 63
2020-11-23 14:00:00 15.7 4 Sudeste 12 Este 0 -- -- 70
2020-11-23 13:00:00 14.3 5 Sudeste 12 Este 0 -- -- 70
2020-11-23 12:00:00 12.9 3 Sudeste 8 Sur 0 -- -- 71
2020-11-23 11:00:00 11.1 5 Sur 13 Sudoeste 0 -- -- 82
2020-11-23 10:00:00 8.7 9 Sudoeste 15 Sudoeste 0 -- -- 87
2020-11-23 09:00:00 6 12 Sur 14 Sur 0 -- -- 95
2020-11-23 08:00:00 5.4 4 Sur 9 Sudoeste 0 -- -- 93
2020-11-23 07:00:00 5.5 4 Sur 11 Sudoeste 0 -- -- 90
2020-11-23 06:00:00 6.5 9 Sudoeste 15 Sudoeste 0 -- -- 94
2020-11-23 05:00:00 5.5 6 Sur 12 Sudoeste 0 -- -- 94
2020-11-23 04:00:00 6.9 7 Sudoeste 12 Sur 0 -- -- 96
2020-11-23 03:00:00 6.1 7 Sudoeste 9 Sudoeste 0 -- -- 97
2020-11-23 02:00:00 7.7 3 Sudoeste 11 Sudoeste 0 -- -- 96
2020-11-23 01:00:00 7.9 7 Sudoeste 10 Sudoeste 0 -- -- 97
2020-11-23 00:00:00 8.3 5 Sudoeste 10 Sudoeste 0 -- -- 97
2020-11-22 23:00:00 8.5 5 Sudoeste 9 Sudoeste 0 -- -- 98
2020-11-22 22:00:00 9.2 0 Calma 8 Sudoeste 0 -- -- 98
2020-11-22 21:00:00 9.7 5 Sudoeste 9 Sudoeste 0 -- -- 97
2020-11-22 20:00:00 10.6 0 Calma -- -- 0 -- -- 97
2020-11-22 19:00:00 10.8 0 Calma 6 Sudeste 0 -- -- 96
2020-11-22 18:00:00 11.2 2 Oeste 13 Noroeste 0 -- -- 93
2020-11-22 17:00:00 12.3 7 Norte 12 Norte 0 -- -- 89
2020-11-22 16:00:00 14.2 5 Norte 11 Norte 0 -- -- 83
2020-11-22 15:00:00 14.5 7 Norte 13 Noroeste 0 -- -- 81
2020-11-22 14:00:00 14.4 7 Norte 12 Noroeste 0 -- -- 78
2020-11-22 13:00:00 14.5 4 Norte 9 Norte 0 -- -- 75
2020-11-22 12:00:00 14.1 4 Norte 10 Noroeste 0 -- -- 74
2020-11-22 11:00:00 13 4 Sur 12 Sudoeste 0 -- -- 76
2020-11-22 10:00:00 9.8 7 Sudoeste 15 Sudoeste 0 -- -- 83
2020-11-22 09:00:00 6.9 11 Sudoeste 14 Sudoeste 0 -- -- 86
2020-11-22 08:00:00 5.5 4 Sur 6 Sur 0 -- -- 84
2020-11-22 07:00:00 7.7 3 Sudoeste 14 Sudoeste 0 -- -- 82
2020-11-22 06:00:00 6.6 7 Sur 12 Sudoeste 0 -- -- 90
2020-11-22 05:00:00 6.4 6 Sudoeste 10 Sudoeste 0 -- -- 87
2020-11-22 04:00:00 6.3 3 Nordeste 5 Sudeste 0 -- -- 85
2020-11-22 03:00:00 6.6 2 Oeste 12 Sur 0 -- -- 83
2020-11-22 02:00:00 5.2 7 Sur 14 Sur 0 -- -- 87
2020-11-22 01:00:00 5.4 5 Sudoeste 9 Sudeste 0 -- -- 91
2020-11-22 00:00:00 6.3 7 Sudoeste 11 Sudoeste 0 -- -- 93
2020-11-21 23:00:00 6.4 5 Sur 9 Sudoeste 0 -- -- 88
2020-11-21 22:00:00 7.2 6 Sur 10 Sur 0 -- -- 86
2020-11-21 21:00:00 7.9 4 Sur 8 Sudoeste 0 -- -- 85
2020-11-21 20:00:00 8.3 4 Sur 9 Este 0 -- -- 82
2020-11-21 19:00:00 8.8 5 Este 18 Este 0 -- -- 80
2020-11-21 18:00:00 9.8 7 Nordeste 15 Nordeste 0 -- -- 76
2020-11-21 17:00:00 11.2 5 Nordeste 18 Nordeste 0 -- -- 69
2020-11-21 16:00:00 13.2 5 Nordeste 18 Nordeste 0 -- -- 61
2020-11-21 15:00:00 13.7 6 Nordeste 17 Este 0 -- -- 58
2020-11-21 14:00:00 13.5 7 Nordeste 18 Este 0 -- -- 57
2020-11-21 13:00:00 12.7 6 Este 18 Sudeste 0 -- -- 62
2020-11-21 12:00:00 11.4 11 Sudeste 20 Este 0 -- -- 70
2020-11-21 11:00:00 9.2 5 Sur 13 Sudeste 0 -- -- 81
2020-11-21 10:00:00 7 4 Sur 10 Este 0 -- -- 88
2020-11-21 09:00:00 5.4 4 Sur 11 Sudeste 0 -- -- 93
2020-11-21 08:00:00 5.4 9 Sudeste 12 Sudeste 0 -- -- 93
2020-11-21 07:00:00 5.2 8 Sudeste 13 Este 0 -- -- 94
2020-11-21 06:00:00 5.6 8 Sudeste 12 Sudeste 0 -- -- 94
2020-11-21 05:00:00 5.9 6 Sur 15 Este 0 -- -- 93
2020-11-21 04:00:00 6.1 8 Sudeste 13 Este 0 -- -- 96
2020-11-21 03:00:00 6.8 4 Sudeste 16 Este 0 -- -- 94
2020-11-21 02:00:00 7 9 Este 15 Este 0 -- -- 96
2020-11-21 01:00:00 7.3 7 Sudeste 14 Este 0 -- -- 95
2020-11-21 00:00:00 7.7 6 Sudeste 14 Este 0 -- -- 93
2020-11-20 23:00:00 7.8 5 Sudeste 14 Sudeste 0 -- -- 94
2020-11-20 22:00:00 8 4 Sur 9 Este 0 -- -- 93
2020-11-20 21:00:00 9 6 Este 9 Este 0 -- -- 91
2020-11-20 20:00:00 9.3 3 Nordeste 9 Nordeste 0 -- -- 91
2020-11-20 19:00:00 9.8 3 Nordeste 12 Nordeste 0 -- -- 88
2020-11-20 18:00:00 10.7 4 Nordeste 14 Este 0 -- -- 82
2020-11-20 17:00:00 12.2 4 Este 18 Este 0 -- -- 76
2020-11-20 16:00:00 12.7 10 Nordeste 19 Norte 0 -- -- 75
2020-11-20 15:00:00 14.4 9 Este 17 Este 0 -- -- 67
2020-11-20 14:00:00 14.9 6 Sudeste 16 Este 0 -- -- 68
2020-11-20 13:00:00 14.8 6 Sudeste 13 Sudeste 0 -- -- 68
2020-11-20 12:00:00 12.6 5 Sur 9 Sudeste 0 -- -- 85
2020-11-20 11:00:00 11.7 5 Sur 8 Sur 0 -- -- 88
2020-11-20 10:00:00 11 5 Sur 12 Sudoeste 0 -- -- 87
2020-11-20 09:00:00 9.3 9 Sudoeste 13 Sudoeste 0 -- -- 96
2020-11-20 08:00:00 9.5 4 Sudoeste 11 Sudoeste 0 -- -- 93
2020-11-20 07:00:00 9.6 6 Sudoeste 10 Sudoeste 0 -- -- 96
2020-11-20 06:00:00 9.7 0 Calma 7 Sudoeste 0 -- -- 96
2020-11-20 05:00:00 9.8 6 Sur 8 Sur 0 -- -- 96
2020-11-20 04:00:00 9.7 5 Sudeste 9 Sudoeste 0 -- -- 95
2020-11-20 03:00:00 10 4 Sudoeste 7 Sudoeste 0 -- -- 94
2020-11-20 02:00:00 10 6 Sudoeste 10 Sudoeste 0 -- -- 95
2020-11-20 01:00:00 10.1 4 Sudeste 10 Sur 0 -- -- 94
2020-11-20 00:00:00 10.3 5 Sudoeste 10 Sudoeste 0 -- -- 93
2020-11-19 23:00:00 10.5 7 Sudoeste 9 Sur 0 -- -- 93
2020-11-19 22:00:00 10.3 5 Sudoeste 11 Sudoeste 0 -- -- 95
2020-11-19 21:00:00 10.4 5 Sudoeste 10 Sudoeste 0 -- -- 96
2020-11-19 20:00:00 10.5 7 Sudoeste 10 Sudoeste 0 -- -- 96
2020-11-19 19:00:00 10.7 2 Sur 5 Sur 0 -- -- 95
2020-11-19 18:00:00 11 2 Sudeste 13 Nordeste 0 -- -- 92
2020-11-19 17:00:00 11.6 6 Nordeste 18 Noroeste 0 -- -- 88
2020-11-19 16:00:00 11.8 7 Norte 18 Nordeste 0 -- -- 91
2020-11-19 15:00:00 12.1 6 Norte 18 Norte 0 -- -- 96
2020-11-19 14:00:00 12.4 8 Norte 14 Norte 0 -- -- 99
2020-11-19 13:00:00 11.7 8 Norte 19 Norte 0.2 -- -- 100
2020-11-19 12:00:00 11.8 9 Norte 17 Noroeste 0.4 -- -- 100
2020-11-19 11:00:00 11.7 8 Norte 14 Norte 0.2 -- -- 100
2020-11-19 10:00:00 11.7 8 Norte 16 Norte 1.2 -- -- 100
2020-11-19 09:00:00 11.9 6 Norte 22 Norte 1 -- -- 100
2020-11-19 08:00:00 12.2 15 Norte 29 Norte 0.8 -- -- 100
2020-11-19 07:00:00 13.4 17 Norte 26 Norte 1 -- -- 100
2020-11-19 06:00:00 13.9 10 Norte 17 Norte 1.6 -- -- 100
2020-11-19 05:00:00 14.1 3 Noroeste 24 Norte 0.6 -- -- 99
2020-11-19 04:00:00 14.5 19 Norte 32 Norte 0.4 -- -- 99
2020-11-19 03:00:00 15.4 19 Norte 32 Noroeste 0 -- -- 97
2020-11-19 02:00:00 15.1 13 Noroeste 33 Oeste 0 -- -- 92
2020-11-19 01:00:00 15.3 14 Noroeste 30 Noroeste 0 -- -- 80
2020-11-19 00:00:00 15.6 9 Sudoeste 20 Sudoeste 0 -- -- 69
2020-11-18 23:00:00 14.7 12 Sudoeste 19 Sudoeste 0 -- -- 74
2020-11-18 22:00:00 15.4 6 Sudoeste 14 Sudoeste 0 -- -- 70
2020-11-18 21:00:00 15.3 9 Sudoeste 15 Sudoeste 0 -- -- 74
2020-11-18 20:00:00 15.9 7 Sudoeste 14 Sudoeste 0 -- -- 72
2020-11-18 19:00:00 16.1 2 Oeste 9 Norte 0 -- -- 71
2020-11-18 18:00:00 16.2 5 Norte 9 Norte 0 -- -- 72
2020-11-18 17:00:00 17.4 8 Norte 13 Noroeste 0 -- -- 63
2020-11-18 16:00:00 19.9 7 Norte 17 Norte 0 -- -- 49
2020-11-18 15:00:00 21 9 Norte 21 Este 0 -- -- 50
2020-11-18 14:00:00 21.3 10 Nordeste 18 Nordeste 0 -- -- 50
2020-11-18 13:00:00 21.9 6 Nordeste 14 Sudeste 0 -- -- 48
2020-11-18 12:00:00 20.3 2 Norte 4 Sur 0 -- -- 48
2020-11-18 11:00:00 20 3 Sur 7 Sur 0 -- -- 50
2020-11-18 10:00:00 16.6 2 Noroeste 9 Sudoeste 0 -- -- 60
2020-11-18 09:00:00 14.5 6 Sudoeste 12 Sudoeste 0 -- -- 60
2020-11-18 08:00:00 14 4 Sur 13 Sudoeste 0 -- -- 54
2020-11-18 07:00:00 15.6 6 Sudoeste 15 Sudoeste 0 -- -- 46
2020-11-18 06:00:00 15.3 8 Sudoeste 18 Sudoeste 0 -- -- 47
2020-11-18 05:00:00 15.9 10 Sudoeste 15 Sudoeste 0 -- -- 44
2020-11-18 04:00:00 15.9 8 Sudoeste 14 Sudoeste 0 -- -- 43
2020-11-18 03:00:00 15.4 5 Sudoeste 13 Sudoeste 0 -- -- 46
2020-11-18 02:00:00 15.5 8 Sudoeste 15 Sudoeste 0 -- -- 53
2020-11-18 01:00:00 15.4 8 Sudoeste 14 Sur 0 -- -- 59
2020-11-18 00:00:00 15.6 9 Sudoeste 19 Sudoeste 0 -- -- 60
2020-11-17 23:00:00 15.6 12 Sudoeste 17 Sudoeste 0 -- -- 62
2020-11-17 22:00:00 14.7 12 Sudoeste 17 Sudoeste 0 -- -- 69
2020-11-17 21:00:00 14.6 8 Sudoeste 15 Sudoeste 0 -- -- 72
2020-11-17 20:00:00 14.4 4 Sudoeste 12 Sudoeste 0 -- -- 86
2020-11-17 19:00:00 14.7 6 Sur 8 Sudoeste 0 -- -- 83
2020-11-17 18:00:00 16.1 0 Calma 2 Este 0 -- -- 80
2020-11-17 17:00:00 17.8 3 Sur 7 Sur 0 -- -- 75
2020-11-17 16:00:00 19 4 Sudeste 8 Nordeste 0 -- -- 70
2020-11-17 15:00:00 18.8 4 Este 8 Sudeste 0 -- -- 67
2020-11-17 14:00:00 18.1 4 Nordeste 6 Nordeste 0 -- -- 67
2020-11-17 13:00:00 17.2 3 Sudeste 9 Sudeste 0 -- -- 67
2020-11-17 12:00:00 15.6 2 Sur 6 Nordeste 0 -- -- 72
2020-11-17 11:00:00 13.7 4 Sur 9 Sur 0 -- -- 71
2020-11-17 10:00:00 11.3 7 Sudoeste 12 Sudoeste 0 -- -- 82
2020-11-17 09:00:00 9.1 10 Sudoeste 14 Sur 0 -- -- 89
2020-11-17 08:00:00 8.3 8 Sur 14 Sudoeste 0 -- -- 87
2020-11-17 07:00:00 8 8 Sudoeste 15 Oeste 0 -- -- 91
2020-11-17 06:00:00 8.8 10 Sudoeste 17 Sudoeste 0 -- -- 92
2020-11-17 05:00:00 7.9 9 Sudoeste 13 Sudoeste 0 -- -- 97
2020-11-17 04:00:00 7.9 10 Sudoeste 14 Sur 0 -- -- 98
2020-11-17 03:00:00 8.5 6 Sur 15 Sudoeste 0 -- -- 94
2020-11-17 02:00:00 8.5 11 Sudoeste 17 Sudoeste 0 -- -- 96
2020-11-17 01:00:00 8.3 6 Sudoeste 11 Sudoeste 0 -- -- 98
2020-11-17 00:00:00 9.3 6 Sudoeste 12 Sudoeste 0 -- -- 96
2020-11-16 23:00:00 9.2 6 Sudoeste 10 Sudoeste 0 -- -- 95
2020-11-16 22:00:00 10.4 4 Sudoeste 8 Sudoeste 0 -- -- 94
2020-11-16 21:00:00 11.5 4 Sur 5 Sur 0 -- -- 92
2020-11-16 20:00:00 11.7 5 Este 7 Este 0 -- -- 90
2020-11-16 19:00:00 12 5 Este 8 Este 0 -- -- 89
2020-11-16 18:00:00 12.4 2 Nordeste 9 Nordeste 0 -- -- 88
2020-11-16 17:00:00 13.7 4 Norte 12 Norte 0 -- -- 83
2020-11-16 16:00:00 14.8 9 Norte 14 Norte 0 -- -- 78
2020-11-16 15:00:00 15.4 6 Norte 18 Norte 0 -- -- 73
2020-11-16 14:00:00 15.5 7 Norte 14 Noroeste 0 -- -- 71
2020-11-16 13:00:00 15.4 4 Norte 9 Norte 0 -- -- 74
2020-11-16 12:00:00 14.8 5 Sur 11 Sudoeste -- -- -- 83
2020-11-16 11:00:00 13.8 7 Sudoeste 13 Sudoeste 0 -- -- 89
2020-11-16 10:00:00 12.7 4 Sudoeste 9 Sudoeste 0 -- -- 89
2020-11-16 09:00:00 12 5 Sudoeste 11 Sudoeste 0 -- -- 93
2020-11-16 08:00:00 12.2 4 Sudoeste 9 Sudoeste 0 -- -- 91
2020-11-16 07:00:00 12 4 Sudoeste 9 Noroeste 0 -- -- 94
2020-11-16 06:00:00 11.8 4 Oeste 13 Oeste 0 -- -- 98
2020-11-16 05:00:00 11.7 6 Sudoeste 9 Sudoeste 0 -- -- 99
2020-11-16 04:00:00 11.9 3 Sudoeste 7 Noroeste 0.6 -- -- 99
2020-11-16 03:00:00 11.8 3 Sudeste 12 Sur 0 -- -- 98
2020-11-16 02:00:00 11.9 7 Sur 26 Noroeste 0.8 -- -- 97
2020-11-16 01:00:00 12.5 5 Noroeste 12 Oeste 0 -- -- 92
2020-11-16 00:00:00 12.6 6 Sudoeste 18 Sur 0 -- -- 92
2020-11-15 23:00:00 12.4 5 Sudoeste 18 Oeste 0 -- -- 94
2020-11-15 22:00:00 12.2 6 Sudoeste 18 Sudoeste 0 -- -- 98
2020-11-15 21:00:00 12.1 6 Sudoeste 23 Oeste 0.2 -- -- 99
2020-11-15 20:00:00 12.2 6 Oeste 23 Noroeste 0.6 -- -- 99
2020-11-15 19:00:00 12.1 10 Noroeste 34 Noroeste 2.8 -- -- 99
2020-11-15 18:00:00 13.1 9 Noroeste 42 Norte 2.6 -- -- 99
2020-11-15 17:00:00 13.6 12 Noroeste 30 Noroeste 2.8 -- -- 98
2020-11-15 16:00:00 13.6 14 Noroeste 33 Noroeste 0.6 -- -- 98
2020-11-15 15:00:00 13.6 19 Noroeste 38 Noroeste 2 -- -- 98
2020-11-15 14:00:00 14.7 21 Noroeste 34 Noroeste 1 -- -- 95
2020-11-15 13:00:00 16.1 18 Noroeste 33 Noroeste 0 -- -- 90
2020-11-15 12:00:00 18.8 11 Noroeste 33 Norte 0 -- -- 63
2020-11-15 11:00:00 19.9 5 Sur 20 Sudoeste 0 -- -- 57
2020-11-15 10:00:00 19.9 13 Sur 24 Sur 0 -- -- 52
2020-11-15 09:00:00 18.7 14 Sur 23 Sudoeste 0 -- -- 55
2020-11-15 08:00:00 17 11 Sur 16 Sur 0 -- -- 62
2020-11-15 07:00:00 16.8 5 Sudeste 12 Sudeste 0 -- -- 60
2020-11-15 06:00:00 16.8 4 Sur 10 Sudeste 0 -- -- 59
2020-11-15 05:00:00 16.7 4 Sur 10 Sur 0 -- -- 61
2020-11-15 04:00:00 16.5 9 Sur 14 Sur 0 -- -- 62
2020-11-15 03:00:00 16.1 10 Sudeste 23 Sur 0 -- -- 59
2020-11-15 02:00:00 15.1 11 Sur 15 Sur 0 -- -- 63
2020-11-15 01:00:00 15.8 8 Sur 10 Sudeste 0 -- -- 53
2020-11-15 00:00:00 15.6 7 Sur 9 Sur 0 -- -- 59
2020-11-14 23:00:00 15.3 7 Sur 10 Sur 0 -- -- 65
2020-11-14 22:00:00 15 6 Sur 12 Sudeste 0 -- -- 66
2020-11-14 21:00:00 15.4 6 Sur 9 Sur 0 -- -- 61
2020-11-14 20:00:00 16 6 Sur 9 Sudoeste 0 -- -- 56
2020-11-14 19:00:00 16.5 9 Sur 11 Sur 0 -- -- 58
2020-11-14 18:00:00 16.9 5 Sur 14 Sur 0 -- -- 60
2020-11-14 17:00:00 18.6 11 Sudeste 15 Sudeste 0 -- -- 54
2020-11-14 16:00:00 21.1 3 Este 8 Sudeste 0 -- -- 46
2020-11-14 15:00:00 19.9 3 Norte 11 Noroeste 0 -- -- 49
2020-11-14 14:00:00 21.5 5 Norte 13 Noroeste 0 -- -- 48
2020-11-14 13:00:00 22.4 5 Sudeste 14 Sudeste 0 -- -- 38
2020-11-14 12:00:00 20.8 9 Sur 14 Sudeste 0 -- -- 45
2020-11-14 11:00:00 18.8 3 Sur 9 Sur 0 -- -- 44
2020-11-14 10:00:00 16.2 4 Sur 9 Sudoeste 0 -- -- 58
2020-11-14 09:00:00 12.1 3 Sudoeste 9 Sudoeste 0 -- -- 58
2020-11-14 08:00:00 10.5 5 Sur 12 Sudoeste 0 -- -- 59
2020-11-14 07:00:00 10.8 8 Sudoeste 15 Sudoeste 0 -- -- 58
2020-11-14 06:00:00 11.4 9 Sudoeste 13 Sudoeste 0 -- -- 60
2020-11-14 05:00:00 13.6 6 Sudoeste 17 Sudoeste 0 -- -- 57
2020-11-14 04:00:00 12.7 5 Sudoeste 14 Sudoeste 0 -- -- 59
2020-11-14 03:00:00 11.1 6 Sudoeste 18 Sudoeste 0 -- -- 62
2020-11-14 02:00:00 11.7 8 Sudoeste 14 Sudoeste 0 -- -- 67
2020-11-14 01:00:00 12.1 5 Sudoeste 14 Sudoeste 0 -- -- 65
2020-11-14 00:00:00 12.7 6 Sudoeste 12 Sudoeste 0 -- -- 69
2020-11-13 23:00:00 12.8 6 Sudoeste 14 Oeste 0 -- -- 75
2020-11-13 22:00:00 12.1 7 Sudoeste 13 Sudoeste 0 -- -- 83
2020-11-13 21:00:00 13.2 7 Sudoeste 15 Sudoeste 0 -- -- 78
2020-11-13 20:00:00 14.7 3 Sudoeste 5 Sudoeste 0 -- -- 70
2020-11-13 19:00:00 15.1 3 Nordeste 5 Nordeste 0 -- -- 65
2020-11-13 18:00:00 16.2 4 Nordeste 8 Nordeste 0 -- -- 56
2020-11-13 17:00:00 17.8 4 Nordeste 13 Nordeste 0 -- -- 56
2020-11-13 16:00:00 19.5 5 Nordeste 17 Norte 0 -- -- 49
2020-11-13 15:00:00 20.5 6 Nordeste 13 Este 0 -- -- 38
2020-11-13 14:00:00 20 8 Este 19 Nordeste 0 -- -- 42
2020-11-13 13:00:00 20.4 10 Sudeste 23 Sudeste 0 -- -- 42
2020-11-13 12:00:00 19.4 15 Sudeste 28 Sudeste 0 -- -- 48
2020-11-13 11:00:00 18 9 Sudeste 23 Sudeste 0 -- -- 53
2020-11-13 10:00:00 16.4 8 Sur 14 Sur 0 -- -- 56
2020-11-13 09:00:00 14.7 8 Sur 11 Sur 0 -- -- 60
2020-11-13 08:00:00 13.9 6 Sur 12 Sudoeste 0 -- -- 62
2020-11-13 07:00:00 15.1 6 Sudoeste 16 Sudoeste 0 -- -- 54
2020-11-13 06:00:00 15.4 9 Sudoeste 16 Sudoeste 0 -- -- 57
2020-11-13 05:00:00 15.3 6 Sudoeste 15 Sudoeste 0 -- -- 57
2020-11-13 04:00:00 13.7 7 Sudoeste 10 Sudoeste 0 -- -- 67
2020-11-13 03:00:00 14.2 5 Sudoeste 13 Sudoeste 0 -- -- 62
2020-11-13 02:00:00 14.7 7 Sudoeste 12 Oeste 0 -- -- 62
2020-11-13 01:00:00 15.2 2 Noroeste 6 Oeste 0 -- -- 61
2020-11-13 00:00:00 15.4 6 Oeste 15 Sudoeste 0 -- -- 59
2020-11-12 23:00:00 14.9 0 Calma 9 Oeste 0 -- -- 67
2020-11-12 22:00:00 14.9 7 Sudoeste 14 Sudoeste 0 -- -- 73
2020-11-12 21:00:00 14.5 8 Sur 15 Sudeste 0 -- -- 76
2020-11-12 20:00:00 14.7 7 Sudeste 12 Sudeste 0 -- -- 80
2020-11-12 19:00:00 14.7 3 Sur 8 Sudeste 0 -- -- 84
2020-11-12 18:00:00 15.8 4 Sudeste 10 Este 0 -- -- 74
2020-11-12 17:00:00 17 4 Nordeste 10 Nordeste 0 -- -- 65
2020-11-12 16:00:00 18 6 Nordeste 14 Norte 0 -- -- 62
2020-11-12 15:00:00 18.1 9 Nordeste 13 Nordeste 0 -- -- 72
2020-11-12 14:00:00 18.1 7 Nordeste 12 Este 0 -- -- 69
2020-11-12 13:00:00 18.2 4 Nordeste 10 Nordeste 0 -- -- 54
2020-11-12 12:00:00 18.2 3 Este 11 Sur 0 -- -- 62
2020-11-12 11:00:00 17.3 4 Sur 17 Noroeste 0 -- -- 71
2020-11-12 10:00:00 14.8 0 Calma 10 Sudoeste 0 -- -- 66
2020-11-12 09:00:00 13.6 3 Sur 12 Sudoeste 0 -- -- 67
2020-11-12 08:00:00 12.9 7 Sudoeste 13 Sudoeste 0 -- -- 64
2020-11-12 07:00:00 13.6 3 Norte 7 Noroeste 0 -- -- 59
2020-11-12 06:00:00 13.5 4 Sudoeste 13 Sudoeste 0 -- -- 60
2020-11-12 05:00:00 13.1 6 Sur 9 Sudoeste 0 -- -- 69
2020-11-12 04:00:00 14.2 6 Sudoeste 11 Sudoeste 0 -- -- 55
2020-11-12 03:00:00 14.1 7 Sudoeste 13 Sudoeste 0 -- -- 54
2020-11-12 02:00:00 14.3 4 Sudoeste 8 Sur 0 -- -- 55
2020-11-12 01:00:00 14 4 Sur 6 Sur 0 -- -- 64
2020-11-12 00:00:00 14.4 8 Sudoeste 11 Sur 0 -- -- 57
2020-11-11 23:00:00 14.2 5 Sudoeste 14 Sur 0 -- -- 65
2020-11-11 22:00:00 14.7 2 Norte 10 Sudoeste 0 -- -- 60
2020-11-11 21:00:00 14.5 3 Noroeste 17 Sudoeste 0 -- -- 61
2020-11-11 20:00:00 14.1 8 Sur 12 Sudoeste 0 -- -- 67
2020-11-11 19:00:00 13.7 6 Sur 8 Sudoeste 0 -- -- 70
2020-11-11 18:00:00 14.3 4 Sur 8 Sur 0 -- -- 72
2020-11-11 17:00:00 15.9 3 Noroeste 8 Sudeste 0 -- -- 58
2020-11-11 16:00:00 16.2 5 Norte 12 Noroeste 0 -- -- 45
2020-11-11 15:00:00 16.5 3 Norte 8 Noroeste 0 -- -- 69
2020-11-11 14:00:00 17.6 4 Norte 12 Norte 0 -- -- 66
2020-11-11 13:00:00 17.3 4 Norte 10 Noroeste 0 -- -- 65
2020-11-11 12:00:00 16.6 4 Norte 13 Norte 0 -- -- 55
2020-11-11 11:00:00 15.9 2 Sur 10 Sudoeste 0 -- -- 63
2020-11-11 10:00:00 13.9 7 Sudoeste 15 Sudoeste 0 -- -- 61
2020-11-11 09:00:00 11.4 9 Sudoeste 14 Sur 0 -- -- 63
2020-11-11 08:00:00 9.7 8 Sudoeste 18 Sudoeste 0 -- -- 70
2020-11-11 07:00:00 9.5 8 Sudoeste 15 Sudoeste 0 -- -- 73
2020-11-11 06:00:00 9.2 9 Sur 17 Sudoeste 0 -- -- 79
2020-11-11 05:00:00 9 11 Sudoeste 17 Sur 0 -- -- 85
2020-11-11 04:00:00 9.5 10 Sur 15 Sudoeste 0 -- -- 85
2020-11-11 03:00:00 9.6 7 Sudoeste 12 Sudoeste 0 -- -- 87
2020-11-11 02:00:00 10 7 Sudoeste 12 Sudoeste 0 -- -- 91
2020-11-11 01:00:00 10.3 5 Sudoeste 13 Sudoeste 0 -- -- 89
2020-11-11 00:00:00 10.8 6 Sudoeste 10 Sudoeste 0 -- -- 94
2020-11-10 23:00:00 11.3 5 Sudoeste 11 Sudoeste 0 -- -- 97
2020-11-10 22:00:00 10.9 5 Sur 7 Sur 0 -- -- 97
2020-11-10 21:00:00 11.8 5 Sudoeste 8 Sudoeste 0 -- -- 96
2020-11-10 20:00:00 12.3 0 Calma 4 Nordeste 0 -- -- 94
2020-11-10 19:00:00 12.7 4 Nordeste 9 Nordeste 0 -- -- 92
2020-11-10 18:00:00 13.8 5 Nordeste 10 Nordeste 0 -- -- 90
2020-11-10 17:00:00 15.3 4 Nordeste 14 Nordeste 0 -- -- 85
2020-11-10 16:00:00 16.1 7 Nordeste 22 Nordeste 0 -- -- 79
2020-11-10 15:00:00 16.6 8 Nordeste 18 Nordeste 0 -- -- 74
2020-11-10 14:00:00 17 8 Nordeste 15 Nordeste 0 -- -- 70
2020-11-10 13:00:00 16.9 4 Nordeste 10 Este 0 -- -- 71
2020-11-10 12:00:00 16 4 Sudeste 10 Sudeste 0 -- -- 85
2020-11-10 11:00:00 15 0 Calma 9 Sudoeste 0 -- -- 87
2020-11-10 10:00:00 13.6 7 Sur 12 Sudoeste 0 -- -- 90
2020-11-10 09:00:00 13 3 Sudoeste 8 Oeste 0 -- -- 95
2020-11-10 08:00:00 11.6 4 Sudoeste 9 Sudoeste 0 -- -- 95
2020-11-10 07:00:00 11.5 6 Sudoeste 11 Sudoeste 0 -- -- 95
2020-11-10 06:00:00 11.8 7 Sudoeste 12 Sudoeste 0 -- -- 94
2020-11-10 05:00:00 11.9 6 Sudoeste 12 Sudoeste 0.2 -- -- 95
2020-11-10 04:00:00 12.2 3 Sur 8 Sudoeste 0 -- -- 95
2020-11-10 03:00:00 12.4 6 Sudoeste 12 Sudoeste 0 -- -- 95
2020-11-10 02:00:00 12.1 8 Sur 12 Sudoeste 0 -- -- 96
2020-11-10 01:00:00 12.5 4 Sur 17 Oeste 0 -- -- 94
2020-11-10 00:00:00 12.6 6 Sudoeste 13 Sudoeste 0 -- -- 91
2020-11-09 23:00:00 13 5 Sudoeste 10 Sudoeste 0 -- -- 92
2020-11-09 22:00:00 12.7 4 Sudoeste 12 Sudoeste 0.2 -- -- 93
2020-11-09 21:00:00 13 3 Sudoeste 14 Sudoeste 0 -- -- 93
2020-11-09 20:00:00 14 7 Sudoeste 13 Sudoeste 0 -- -- 95
2020-11-09 19:00:00 14.7 5 Sudoeste 15 Oeste 0.8 -- -- 94
2020-11-09 18:00:00 15.4 5 Oeste 24 Oeste 0 -- -- 90
2020-11-09 17:00:00 16.6 4 Oeste 19 Oeste 0 -- -- 78
2020-11-09 16:00:00 16.7 9 Noroeste 26 Noroeste 0 -- -- 76
2020-11-09 15:00:00 17.7 12 Noroeste 23 Noroeste 0 -- -- 65
2020-11-09 14:00:00 19.2 10 Noroeste 21 Noroeste 0 -- -- 52
2020-11-09 13:00:00 19.8 6 Norte 13 Norte 0 -- -- 51
2020-11-09 12:00:00 20.6 3 Sur 9 Oeste 0 -- -- 38
2020-11-09 11:00:00 18.6 5 Sur 9 Sur 0 -- -- 45
2020-11-09 10:00:00 16.3 7 Sudoeste 10 Sudoeste 0 -- -- 55
2020-11-09 09:00:00 14.4 6 Sudoeste 12 Sudoeste 0 -- -- 54
2020-11-09 08:00:00 13.3 9 Sudoeste 17 Sur 0 -- -- 57
2020-11-09 07:00:00 12.1 9 Sur 13 Sur 0 -- -- 65
2020-11-09 06:00:00 13.2 7 Sudoeste 10 Sur 0 -- -- 59
2020-11-09 05:00:00 13.2 5 Sudoeste 10 Sudeste 0 -- -- 67
2020-11-09 04:00:00 13.8 5 Sur 10 Sudeste 0 -- -- 66
2020-11-09 03:00:00 14.5 5 Sur 12 Este 0 -- -- 60
2020-11-09 02:00:00 15.1 9 Sudeste 29 Sudeste 0 -- -- 58
2020-11-09 01:00:00 17.3 14 Sudeste 28 Sudeste 0 -- -- 47
2020-11-09 00:00:00 16.7 5 Este 21 Sudeste 0 -- -- 52
2020-11-08 23:00:00 17.3 16 Sur 33 Sur 0 -- -- 53
2020-11-08 22:00:00 17 11 Sur 28 Sur 0 -- -- 55
2020-11-08 21:00:00 16.8 13 Sur 24 Sur 0 -- -- 55
2020-11-08 20:00:00 17.1 19 Sur 32 Sur 0 -- -- 55
2020-11-08 19:00:00 17.3 24 Sur 35 Sur 0 -- -- 53
2020-11-08 18:00:00 16.8 12 Sudeste 24 Sudeste 0 -- -- 56
2020-11-08 17:00:00 17.8 12 Sur 46 Sur 0 -- -- 50
2020-11-08 16:00:00 17.7 9 Sur 22 Sudeste 0 -- -- 51
2020-11-08 15:00:00 17.6 9 Sudeste 25 Sudeste 0 -- -- 55
2020-11-08 14:00:00 17.6 11 Sur 25 Sur 0 -- -- 53
2020-11-08 13:00:00 17.5 12 Sur 26 Sur 0 -- -- 54
2020-11-08 12:00:00 17.5 13 Sur 21 Sur 0 -- -- 56
2020-11-08 11:00:00 18.8 15 Sudeste 25 Sudeste 0 -- -- 50
2020-11-08 10:00:00 18.2 9 Sur 22 Sur 0 -- -- 53
2020-11-08 09:00:00 15.7 4 Sudeste 21 Sur 0 -- -- 62
2020-11-08 08:00:00 14.9 15 Sur 37 Sur 0 -- -- 63
2020-11-08 07:00:00 15.1 23 Sur 36 Sur 0 -- -- 64
2020-11-08 06:00:00 15.3 14 Sudeste 23 Sur 0 -- -- 62
2020-11-08 05:00:00 15.2 14 Sudeste 20 Sudeste 0 -- -- 64
2020-11-08 04:00:00 13.8 10 Sur 18 Sur 0 -- -- 70
2020-11-08 03:00:00 13.3 10 Sur 15 Sur 0 -- -- 71
2020-11-08 02:00:00 13.3 8 Sudeste 13 Sudeste 0 -- -- 72
2020-11-08 01:00:00 13.4 9 Sur 15 Sur 0 -- -- 69
2020-11-08 00:00:00 14.1 4 Sur 8 Sudoeste 0 -- -- 60
2020-11-07 23:00:00 14.2 4 Sur 9 Sudoeste 0 -- -- 67
2020-11-07 22:00:00 14.5 4 Sur 8 Sudoeste 0 -- -- 72
2020-11-07 21:00:00 13.7 5 Sur 9 Sudoeste 0 -- -- 90
2020-11-07 20:00:00 14.2 5 Sur 9 Sudoeste 0 -- -- 90
2020-11-07 19:00:00 14.4 2 Sur 5 Sur 0 -- -- 88
2020-11-07 18:00:00 15.2 2 Sur 6 Sur 0 -- -- 83
2020-11-07 17:00:00 16.6 3 Sudoeste 17 Norte 0 -- -- 76
2020-11-07 16:00:00 18 8 Noroeste 23 Noroeste 0 -- -- 68
2020-11-07 15:00:00 18.6 5 Noroeste 22 Noroeste 0 -- -- 69
2020-11-07 14:00:00 18.9 8 Norte 17 Noroeste 0 -- -- 71
2020-11-07 13:00:00 18.2 4 Noroeste 9 Oeste 0 -- -- 73
2020-11-07 12:00:00 17.4 3 Sudoeste 16 Norte 0 -- -- 77
2020-11-07 11:00:00 16.7 6 Noroeste 18 Noroeste 0 -- -- 80
2020-11-07 10:00:00 16.2 3 Norte 19 Sur 0 -- -- 78
2020-11-07 09:00:00 16.4 6 Sur 28 Sur 0 -- -- 62
2020-11-07 08:00:00 17.5 15 Sur 40 Sur 0 -- -- 54
2020-11-07 07:00:00 18 28 Sur 52 Sur 0 -- -- 52
2020-11-07 06:00:00 18.3 36 Sur 54 Sur 0 -- -- 55
2020-11-07 05:00:00 19 31 Sur 48 Sudeste 0 -- -- 56
2020-11-07 04:00:00 19.1 24 Sudeste 37 Sudeste 0 -- -- 54
2020-11-07 03:00:00 18.2 15 Sur 32 Sudeste 0 -- -- 56
2020-11-07 02:00:00 18.1 13 Sudeste 32 Sudeste 0 -- -- 58
2020-11-07 01:00:00 16.4 10 Sudeste 25 Sudeste 0 -- -- 66
2020-11-07 00:00:00 16 21 Sudeste 46 Sur 0 -- -- 66
2020-11-06 23:00:00 18.4 35 Sur 66 Sudeste 0 -- -- 50
2020-11-06 22:00:00 19.6 28 Sur 43 Sur 0 -- -- 56
2020-11-06 21:00:00 19.5 27 Sur 47 Sur 0 -- -- 57
2020-11-06 20:00:00 19.3 25 Sur 39 Sur 0 -- -- 58
2020-11-06 19:00:00 19.3 21 Sur 41 Sur 0 -- -- 58
2020-11-06 18:00:00 19.5 23 Sur 44 Sudeste 0 -- -- 56
2020-11-06 17:00:00 20.2 34 Sur 52 Sudeste 0 -- -- 52
2020-11-06 16:00:00 20.6 27 Sudeste 51 Sudeste 0 -- -- 51
2020-11-06 15:00:00 21.2 27 Sudeste 46 Sur 0 -- -- 48
2020-11-06 14:00:00 21.8 27 Sur 52 Sudeste 0 -- -- 51
2020-11-06 13:00:00 19.9 26 Sur 48 Sur 0 -- -- 62
2020-11-06 12:00:00 18.8 35 Sur 55 Sur 0 -- -- 66
2020-11-06 11:00:00 18 18 Sur 41 Sur 0 -- -- 67
2020-11-06 10:00:00 18.4 24 Sur 40 Sur 0 -- -- 66
2020-11-06 09:00:00 17 21 Sur 42 Sur 0 -- -- 70
2020-11-06 08:00:00 16.6 29 Sur 52 Sur 0 -- -- 70
2020-11-06 07:00:00 16.3 21 Sur 35 Sur 0 -- -- 72
2020-11-06 06:00:00 15.5 4 Este 35 Sur 0 -- -- 73
2020-11-06 05:00:00 15.5 17 Sur 36 Sur 0 -- -- 74
2020-11-06 04:00:00 15.6 14 Sur 32 Sudeste 0 -- -- 73
2020-11-06 03:00:00 15.1 12 Sudeste 26 Sudeste 0 -- -- 76
2020-11-06 02:00:00 15.4 8 Sudeste 36 Sudeste 0 -- -- 75
2020-11-06 01:00:00 15.1 15 Sur 31 Sudeste 0 -- -- 77
2020-11-06 00:00:00 14.9 13 Sudeste 26 Sur 0 -- -- 78
2020-11-05 23:00:00 14.4 12 Sudeste 21 Sudeste 0 -- -- 78
2020-11-05 22:00:00 12.7 9 Sur 13 Sur 0 -- -- 86
2020-11-05 21:00:00 12 8 Sudeste 13 Sudeste 0 -- -- 89
2020-11-05 20:00:00 12.1 3 Este 10 Este 0 -- -- 88
2020-11-05 19:00:00 12.1 2 Este 10 Este 0 -- -- 87
2020-11-05 18:00:00 12.5 4 Sudeste 12 Nordeste 0 -- -- 84
2020-11-05 17:00:00 13.3 5 Nordeste 21 Nordeste 0 -- -- 82
2020-11-05 16:00:00 14.2 10 Nordeste 21 Nordeste 0 -- -- 76
2020-11-05 15:00:00 15.2 10 Este 26 Nordeste 0 -- -- 69
2020-11-05 14:00:00 15.2 10 Nordeste 21 Este 0 -- -- 65
2020-11-05 13:00:00 13.4 10 Nordeste 20 Este 0 -- -- 70
2020-11-05 12:00:00 12.3 6 Este 18 Este 0 -- -- 72
2020-11-05 11:00:00 11.2 6 Este 13 Sur 0 -- -- 74
2020-11-05 10:00:00 10.3 5 Sudeste 12 Este 0 -- -- 82
2020-11-05 09:00:00 8.7 5 Sudeste 13 Sudeste 0 -- -- 83
2020-11-05 08:00:00 7.5 4 Sur 15 Este 0 -- -- 89
2020-11-05 07:00:00 7.9 3 Norte 10 Este 0 -- -- 86
2020-11-05 06:00:00 8 4 Sudeste 8 Sudeste 0 -- -- 87
2020-11-05 05:00:00 8.3 5 Sudeste 8 Sur 0 -- -- 84
2020-11-05 04:00:00 8.6 3 Sur 15 Este 0 -- -- 84
2020-11-05 03:00:00 9.3 4 Sudeste 17 Este 0 -- -- 83
2020-11-05 02:00:00 10 10 Este 21 Este 0 -- -- 77
2020-11-05 01:00:00 10.2 8 Este 16 Este 0 -- -- 76
2020-11-05 00:00:00 10 6 Este 17 Sudeste 0 -- -- 79
2020-11-04 23:00:00 9.9 6 Sudeste 18 Este 0 -- -- 81
2020-11-04 22:00:00 9.4 3 Sudeste 10 Sur 0 -- -- 86
2020-11-04 21:00:00 9 7 Sur 13 Sur 0 -- -- 88
2020-11-04 20:00:00 9.6 6 Sudeste 12 Este 0 -- -- 83
2020-11-04 19:00:00 10 3 Nordeste 26 Este 0 -- -- 80
2020-11-04 18:00:00 10.3 10 Nordeste 27 Nordeste 0 -- -- 78
2020-11-04 17:00:00 10.9 8 Nordeste 23 Nordeste 0 -- -- 80
2020-11-04 16:00:00 11.4 10 Norte 22 Norte 0 -- -- 84
2020-11-04 15:00:00 11.3 9 Norte 15 Norte 0 -- -- 83
2020-11-04 14:00:00 11.6 4 Nordeste 8 Nordeste 0 -- -- 79
2020-11-04 13:00:00 12.7 5 Sudeste 11 Sudeste 0 -- -- 75
2020-11-04 12:00:00 10.9 3 Sudeste 6 Nordeste 0 -- -- 80
2020-11-04 11:00:00 10.8 3 Sur 15 Sudoeste 0 -- -- 85
2020-11-04 10:00:00 9.1 8 Sudoeste 13 Sudoeste 0 -- -- 95
2020-11-04 09:00:00 7.9 6 Sudeste 13 Sudeste 0.2 -- -- 96
2020-11-04 08:00:00 7.7 4 Sudoeste 16 Sudeste 0.4 -- -- 96
2020-11-04 07:00:00 7.8 4 Sudoeste 17 Sudoeste 0 -- -- 93
2020-11-04 06:00:00 7.7 8 Sudoeste 17 Oeste 0 -- -- 96
2020-11-04 05:00:00 7.6 9 Sudoeste 14 Sudoeste 0.8 -- -- 97
2020-11-04 04:00:00 7.8 5 Sudoeste 14 Sudoeste 0.4 -- -- 98
2020-11-04 03:00:00 8.1 5 Norte 13 Sudoeste 1 -- -- 98
2020-11-04 02:00:00 7.8 5 Sudoeste 12 Sudoeste 1.4 -- -- 96
2020-11-04 01:00:00 8.1 4 Norte 13 Sudoeste 1 -- -- 96
2020-11-04 00:00:00 8.5 7 Sudoeste 16 Sudoeste 0 -- -- 96
2020-11-03 23:00:00 8.5 9 Sudoeste 16 Sudoeste 0.4 -- -- 97
2020-11-03 22:00:00 8.9 8 Sudoeste 12 Sur 0.2 -- -- 96
2020-11-03 21:00:00 9 5 Oeste 14 Sudoeste 0.2 -- -- 96
2020-11-03 20:00:00 9 8 Sudoeste 13 Sudoeste 0 -- -- 97
2020-11-03 19:00:00 9.5 6 Sudoeste 16 Oeste 0.2 -- -- 95
2020-11-03 18:00:00 9.9 6 Sudoeste 15 Oeste 0.2 -- -- 93
2020-11-03 17:00:00 10.1 3 Oeste 14 Noroeste 0.8 -- -- 93
2020-11-03 16:00:00 10.9 3 Norte 13 Oeste 1.2 -- -- 93
2020-11-03 15:00:00 11.5 6 Oeste 18 Oeste 0.2 -- -- 91
2020-11-03 14:00:00 11.4 7 Noroeste 29 Oeste 0 -- -- 95
2020-11-03 13:00:00 11.4 9 Noroeste 28 Norte 0.6 -- -- 98
2020-11-03 12:00:00 11 17 Norte 30 Norte 2.4 -- -- 97
2020-11-03 11:00:00 11 9 Noroeste 35 Noroeste 3.2 -- -- 97
2020-11-03 10:00:00 11.8 16 Noroeste 30 Noroeste 0 -- -- 90
2020-11-03 09:00:00 11.8 12 Noroeste 28 Noroeste 0.2 -- -- 88
2020-11-03 08:00:00 10.6 5 Sudoeste 12 Sudoeste 0 -- -- 78
2020-11-03 07:00:00 11.2 5 Sudoeste 16 Sudoeste 0 -- -- 80
2020-11-03 06:00:00 11.5 6 Sudoeste 15 Sudoeste 0 -- -- 90
2020-11-03 05:00:00 11.4 6 Sudoeste 17 Oeste 0 -- -- 95
2020-11-03 04:00:00 11.1 6 Sudoeste 13 Sudoeste 0 -- -- 99
2020-11-03 03:00:00 10.8 8 Sudoeste 13 Sudoeste 0.2 -- -- 100
2020-11-03 02:00:00 10.7 9 Sur 14 Sur 0 -- -- 100
2020-11-03 01:00:00 10.9 6 Sudoeste 14 Sudoeste 0 -- -- 100
2020-11-03 00:00:00 10.9 6 Sudoeste 9 Sudoeste 1.2 -- -- 100
2020-11-02 23:00:00 11.1 3 Sudoeste 13 Noroeste 2 -- -- 100
2020-11-02 22:00:00 11.1 9 Noroeste 15 Noroeste 0.8 -- -- 99
2020-11-02 21:00:00 11.2 8 Noroeste 23 Noroeste 1.6 -- -- 99
2020-11-02 20:00:00 12 7 Norte 15 Noroeste 1.6 -- -- 99
2020-11-02 19:00:00 12.5 3 Sudoeste 13 Sudoeste 0.2 -- -- 98
2020-11-02 18:00:00 12.6 8 Sudoeste 15 Oeste 0.4 -- -- 98
2020-11-02 17:00:00 12.7 6 Noroeste 20 Norte 1 -- -- 97
2020-11-02 16:00:00 13.1 8 Oeste 34 Oeste 1.4 -- -- 97
2020-11-02 15:00:00 14 14 Noroeste 45 Noroeste 1.2 -- -- 96
2020-11-02 14:00:00 15.9 16 Noroeste 44 Noroeste 0 -- -- 91
2020-11-02 13:00:00 17.4 18 Noroeste 52 Oeste 0 -- -- 87
2020-11-02 12:00:00 23.7 9 Sur 16 Sur 0 -- -- 52
2020-11-02 11:00:00 21.1 11 Sur 18 Sur 0 -- -- 58
2020-11-02 10:00:00 18.3 10 Sur 17 Sudoeste 0 -- -- 75
2020-11-02 09:00:00 16.2 9 Sur 20 Sudoeste 0 -- -- 78
2020-11-02 08:00:00 14.9 6 Sudoeste 14 Sudoeste 0 -- -- 83
2020-11-02 07:00:00 15.5 5 Sudoeste 11 Sudoeste 0 -- -- 82
2020-11-02 06:00:00 15.1 6 Sudoeste 13 Sudoeste 0 -- -- 85
2020-11-02 05:00:00 14 7 Sur 12 Sudoeste 0 -- -- 86
2020-11-02 04:00:00 15.2 3 Sudoeste 15 Sudoeste 0 -- -- 86
2020-11-02 03:00:00 15.1 4 Norte 6 Noroeste 0 -- -- 86
2020-11-02 02:00:00 15.9 4 Sudoeste 11 Sudoeste 0 -- -- 82
2020-11-02 01:00:00 16.3 5 Sudoeste 14 Sudoeste 0 -- -- 82
2020-11-02 00:00:00 16.4 0 Calma 5 Sudeste 0 -- -- 75
2020-11-01 23:00:00 17.2 0 Calma 8 Sudoeste 0 -- -- 70
2020-11-01 22:00:00 17.2 7 Sudoeste 10 Sudoeste 0 -- -- 71
2020-11-01 21:00:00 17.7 5 Sudoeste 8 Sudoeste 0 -- -- 70
2020-11-01 20:00:00 18.3 5 Sudoeste 9 Sudoeste 0 -- -- 70
2020-11-01 19:00:00 18.4 3 Norte 5 Norte 0 -- -- 66
2020-11-01 18:00:00 18.9 4 Norte 9 Norte 0 -- -- 67
2020-11-01 17:00:00 21.1 4 Norte 24 Sudeste 0 -- -- 64
2020-11-01 16:00:00 23.7 4 Sudeste 18 Sudeste 0 -- -- 53
2020-11-01 15:00:00 23.7 11 Sudeste 20 Sudeste 0 -- -- 51
2020-11-01 14:00:00 23.2 6 Sur 9 Sudeste 0 -- -- 62
2020-11-01 13:00:00 22.6 3 Noroeste 14 Sudeste 0 -- -- 58
2020-11-01 12:00:00 22.2 12 Sudeste 21 Sudeste 0 -- -- 54
2020-11-01 11:00:00 21.5 8 Sur 15 Sur 0 -- -- 60
2020-11-01 10:00:00 20.6 8 Sur 15 Sur 0 -- -- 57
2020-11-01 09:00:00 19.2 8 Sudoeste 12 Sur 0 -- -- 62
2020-11-01 08:00:00 18 8 Sur 13 Sudoeste 0 -- -- 58
2020-11-01 07:00:00 18.1 10 Sudoeste 15 Sudoeste 0 -- -- 57
2020-11-01 06:00:00 18.2 8 Sudoeste 15 Sudoeste 0 -- -- 55
2020-11-01 05:00:00 18 9 Sur 14 Sudoeste 0 -- -- 54
2020-11-01 04:00:00 17.6 6 Sudoeste 16 Sudoeste 0 -- -- 54
2020-11-01 03:00:00 17.3 6 Sudoeste 14 Sudoeste 0 -- -- 56
2020-11-01 02:00:00 17.3 9 Sudoeste 15 Sudoeste 0 -- -- 59
2020-11-01 01:00:00 17.3 9 Sudoeste 14 Sudoeste 0 -- -- 58
2020-11-01 00:00:00 16.5 8 Sudoeste 14 Sudoeste 0 -- -- 67
2020-10-31 23:00:00 16.9 6 Sudoeste 14 Sudoeste 0 -- -- 68
2020-10-31 22:00:00 16.7 9 Sudoeste 15 Sudoeste 0 -- -- 73
2020-10-31 21:00:00 16.6 9 Sudoeste 12 Sudoeste 0 -- -- 73
2020-10-31 20:00:00 17.2 5 Sudoeste 9 Sudoeste 0 -- -- 77
2020-10-31 19:00:00 18 0 Calma 13 Sudeste 0 -- -- 63
2020-10-31 18:00:00 20.1 10 Sudeste 18 Sudeste 0 -- -- 56
2020-10-31 17:00:00 22.4 12 Sudeste 18 Sudeste 0 -- -- 48
2020-10-31 16:00:00 23.4 0 Calma 8 Este 0 -- -- 53
2020-10-31 15:00:00 22.4 4 Este 15 Noroeste 0 -- -- 59
2020-10-31 14:00:00 23.2 7 Norte 18 Norte 0 -- -- 53
2020-10-31 13:00:00 22.3 3 Este 8 Sudeste 0 -- -- 50
2020-10-31 12:00:00 20.2 4 Sudoeste 12 Sudoeste 0 -- -- 49
2020-10-31 11:00:00 21 4 Sudoeste 11 Sur 0 -- -- 57
2020-10-31 10:00:00 17.6 11 Sur 14 Sur 0 -- -- 69
2020-10-31 09:00:00 14.2 10 Sur 16 Sudoeste 0 -- -- 74
2020-10-31 08:00:00 12.5 10 Sudoeste 15 Sudoeste 0 -- -- 73
2020-10-31 07:00:00 14.1 8 Sudoeste 15 Sudoeste 0 -- -- 66
2020-10-31 06:00:00 11.4 2 Noroeste 14 Sudoeste 0 -- -- 79
2020-10-31 05:00:00 12.1 6 Sur 19 Sudoeste 0 -- -- 76
2020-10-31 04:00:00 10.6 14 Sudoeste 21 Sudoeste 0 -- -- 86
2020-10-31 03:00:00 10.7 8 Sudoeste 15 Sudoeste 0 -- -- 86
2020-10-31 02:00:00 10.2 12 Sudoeste 19 Sudoeste 0 -- -- 91
2020-10-31 01:00:00 12.2 7 Sudoeste 15 Sudoeste 0 -- -- 87
2020-10-31 00:00:00 11.6 6 Sur 15 Oeste 0 -- -- 88
2020-10-30 23:00:00 12.7 7 Sudoeste 16 Sudoeste 0 -- -- 89
2020-10-30 22:00:00 12.7 4 Sudoeste 9 Sudoeste 0 -- -- 96
2020-10-30 21:00:00 12.9 7 Sudoeste 9 Sudoeste 0 -- -- 96
2020-10-30 20:00:00 13.2 7 Sudoeste 10 Sudoeste 0 -- -- 94
2020-10-30 19:00:00 14 0 Calma 5 Este 0 -- -- 90
2020-10-30 18:00:00 15 3 Nordeste 8 Nordeste 0 -- -- 85
2020-10-30 17:00:00 16.3 4 Nordeste 10 Nordeste 0 -- -- 82
2020-10-30 16:00:00 17 6 Nordeste 15 Norte 0 -- -- 76
2020-10-30 15:00:00 17.5 9 Norte 16 Noroeste 0 -- -- 76
2020-10-30 14:00:00 18.1 8 Norte 12 Norte 0 -- -- 73
2020-10-30 13:00:00 17.4 4 Nordeste 9 Este 0 -- -- 72
2020-10-30 12:00:00 17.3 5 Sudeste 14 Sur 0 -- -- 72
2020-10-30 11:00:00 15.6 9 Sur 14 Sur 0 -- -- 80
2020-10-30 10:00:00 13.5 9 Sur 16 Sudoeste 0 -- -- 87
2020-10-30 09:00:00 12.1 8 Sudoeste 14 Sudoeste 0 -- -- 93
2020-10-30 08:00:00 9.8 6 Sur 10 Sur 0 -- -- 96
2020-10-30 07:00:00 10.7 7 Sur 12 Sur 0 -- -- 95
2020-10-30 06:00:00 11.8 7 Sudoeste 15 Sudoeste 0 -- -- 93
2020-10-30 05:00:00 11.8 6 Sudoeste 14 Sudoeste 0 -- -- 93
2020-10-30 04:00:00 11.4 7 Sudoeste 13 Sudoeste 0 -- -- 95
2020-10-30 03:00:00 12.1 6 Sudoeste 11 Sudoeste 0 -- -- 92
2020-10-30 02:00:00 12.4 6 Sudoeste 12 Oeste 0 -- -- 91
2020-10-30 01:00:00 12.4 6 Sudoeste 16 Sudoeste 0 -- -- 92
2020-10-30 00:00:00 12 8 Sudoeste 15 Sudoeste 0 -- -- 94
2020-10-29 23:00:00 11.7 5 Sudoeste 10 Oeste 0 -- -- 96
2020-10-29 22:00:00 11.8 5 Sudoeste 10 Oeste 0 -- -- 95
2020-10-29 21:00:00 12.2 3 Sudoeste 6 Sudoeste 0 -- -- 93
2020-10-29 20:00:00 12.8 0 Calma 5 Nordeste 0 -- -- 91
2020-10-29 19:00:00 13.2 2 Este 6 Nordeste 0 -- -- 88
2020-10-29 18:00:00 14.2 3 Norte 10 Norte 0 -- -- 87
2020-10-29 17:00:00 15.5 6 Norte 17 Nordeste 0 -- -- 80
2020-10-29 16:00:00 16.7 9 Norte 20 Norte 0 -- -- 74
2020-10-29 15:00:00 17.5 9 Norte 17 Norte 0 -- -- 69
2020-10-29 14:00:00 17.7 10 Norte 18 Norte 0 -- -- 67
2020-10-29 13:00:00 17.6 6 Nordeste 14 Nordeste 0 -- -- 67
2020-10-29 12:00:00 17.5 5 Este 13 Este 0 -- -- 66
2020-10-29 11:00:00 16.2 5 Sur 10 Sur 0 -- -- 72
2020-10-29 10:00:00 14.1 7 Sur 13 Sudoeste 0 -- -- 84
2020-10-29 09:00:00 11.1 9 Sur 12 Sur 0 -- -- 92
2020-10-29 08:00:00 10.9 4 Oeste 14 Sudoeste 0 -- -- 91
2020-10-29 07:00:00 10.8 7 Sur 12 Sur 0 -- -- 90
2020-10-29 06:00:00 11.4 4 Oeste 15 Sudoeste 0 -- -- 88
2020-10-29 05:00:00 11.4 9 Sur 14 Sur 0 -- -- 90
2020-10-29 04:00:00 12 6 Sur 12 Sur 0 -- -- 88
2020-10-29 03:00:00 11.6 9 Sur 15 Sudoeste 0 -- -- 90
2020-10-29 02:00:00 12.2 9 Sudoeste 14 Sudoeste 0 -- -- 89
2020-10-29 01:00:00 11.2 10 Sudoeste 14 Sudoeste 0 -- -- 94
2020-10-29 00:00:00 11.9 6 Sudoeste 12 Sudoeste 0 -- -- 93
2020-10-28 23:00:00 12.4 3 Nordeste 10 Sudoeste 0 -- -- 88
2020-10-28 22:00:00 13.1 6 Sudoeste 10 Sur 0 -- -- 85
2020-10-28 21:00:00 13.8 4 Sudoeste 8 Sur 0 -- -- 83
2020-10-28 20:00:00 14.3 3 Sudoeste 6 Sudoeste 0 -- -- 83
2020-10-28 19:00:00 14.7 3 Oeste 13 Noroeste 0 -- -- 77
2020-10-28 18:00:00 15.5 5 Noroeste 9 Oeste 0 -- -- 76
2020-10-28 17:00:00 16.9 3 Sudoeste 8 Sur 0 -- -- 69
2020-10-28 16:00:00 17.4 6 Sur 17 Sur 0 -- -- 67
2020-10-28 15:00:00 17.3 13 Sur 20 Sudoeste 0 -- -- 64
2020-10-28 14:00:00 16.2 6 Noroeste 28 Oeste 0 -- -- 62
2020-10-28 13:00:00 15.9 6 Noroeste 23 Noroeste 0 -- -- 69
2020-10-28 12:00:00 16 11 Noroeste 26 Noroeste 0 -- -- 75
2020-10-28 11:00:00 15.5 6 Sur 10 Oeste 0 -- -- 86
2020-10-28 10:00:00 14.4 4 Sudoeste 8 Sudoeste 0 -- -- 91
2020-10-28 09:00:00 13.6 3 Sudoeste 9 Sudoeste 0 -- -- 93
2020-10-28 08:00:00 13.3 5 Sudoeste 11 Sudoeste 0 -- -- 92
2020-10-28 07:00:00 13.3 5 Sudoeste 11 Sudoeste 0 -- -- 91
2020-10-28 06:00:00 13.3 6 Sudoeste 10 Sur 0.2 -- -- 91
2020-10-28 05:00:00 12.9 6 Sudoeste 13 Sudoeste 0 -- -- 95
2020-10-28 04:00:00 13 4 Sudoeste 12 Sudoeste 0 -- -- 97
2020-10-28 03:00:00 13.2 4 Sudoeste 15 Sudoeste 0 -- -- 98
2020-10-28 02:00:00 13.3 6 Sudoeste 21 Noroeste 0.2 -- -- 98
2020-10-28 01:00:00 13.5 10 Noroeste 31 Noroeste 1.2 -- -- 99
2020-10-28 00:00:00 14 8 Noroeste 23 Noroeste 2.6 -- -- 98